createdAt,value
2017-08-15T00:01:27.048Z,19.32
2017-08-15T00:03:54.578Z,19.31
2017-08-15T00:06:21.784Z,19.32
2017-08-15T00:08:49.121Z,19.31
2017-08-15T00:11:16.754Z,19.31
2017-08-15T00:13:44.037Z,19.32
2017-08-15T00:16:11.221Z,19.32
2017-08-15T00:18:38.388Z,19.31
2017-08-15T00:21:05.568Z,19.32
2017-08-15T00:23:32.937Z,19.32
2017-08-15T00:26:00.124Z,19.32
2017-08-15T00:28:27.545Z,19.32
2017-08-15T00:30:54.714Z,19.31
2017-08-15T00:33:21.881Z,19.31
2017-08-15T00:35:49.300Z,19.31
2017-08-15T00:38:16.765Z,19.32
2017-08-15T00:40:43.955Z,19.31
2017-08-15T00:43:11.683Z,19.30
2017-08-15T00:45:39.201Z,19.31
2017-08-15T00:48:06.589Z,19.31
2017-08-15T00:50:34.236Z,19.34
2017-08-15T00:53:01.502Z,19.40
2017-08-15T00:55:28.949Z,19.44
2017-08-15T00:57:56.116Z,19.52
2017-08-15T01:00:23.574Z,19.54
2017-08-15T01:02:51.150Z,19.51
2017-08-15T01:05:18.336Z,19.44
2017-08-15T01:07:45.634Z,19.41
2017-08-15T01:10:13.092Z,19.39
2017-08-15T01:12:40.545Z,19.38
2017-08-15T01:15:07.732Z,19.37
2017-08-15T01:17:35.151Z,19.37
2017-08-15T01:20:02.798Z,19.36
2017-08-15T01:22:30.074Z,19.35
2017-08-15T01:24:57.256Z,19.35
2017-08-15T01:27:24.676Z,19.36
2017-08-15T01:29:51.868Z,19.35
2017-08-15T01:32:19.282Z,19.35
2017-08-15T01:34:46.626Z,19.35
2017-08-15T01:37:13.815Z,19.35
2017-08-15T01:39:41.045Z,19.34
2017-08-15T01:42:08.581Z,19.35
2017-08-15T01:44:35.952Z,19.33
2017-08-15T01:47:03.592Z,19.33
2017-08-15T01:49:30.932Z,19.33
2017-08-15T01:51:58.327Z,19.33
2017-08-15T01:54:25.498Z,19.34
2017-08-15T01:56:52.666Z,19.34
2017-08-15T01:59:20.082Z,19.34
2017-08-15T02:01:47.267Z,19.33
2017-08-15T02:04:14.438Z,19.34
2017-08-15T02:06:41.605Z,19.33
2017-08-15T02:09:09.101Z,19.33
2017-08-15T02:11:36.273Z,19.33
2017-08-15T02:14:03.600Z,19.33
2017-08-15T02:16:31.053Z,19.33
2017-08-15T02:18:58.447Z,19.33
2017-08-15T02:21:25.738Z,19.32
2017-08-15T02:23:53.120Z,19.33
2017-08-15T02:26:20.583Z,19.33
2017-08-15T02:28:48.348Z,19.33
2017-08-15T02:31:15.525Z,19.33
2017-08-15T02:33:42.734Z,19.33
2017-08-15T02:36:09.905Z,19.33
2017-08-15T02:38:37.437Z,19.33
2017-08-15T02:41:04.621Z,19.34
2017-08-15T02:43:32.048Z,19.33
2017-08-15T02:45:59.313Z,19.34
2017-08-15T02:48:26.661Z,19.33
2017-08-15T02:50:54.074Z,19.33
2017-08-15T02:53:21.246Z,19.33
2017-08-15T02:55:48.528Z,19.33
2017-08-15T02:58:16.178Z,19.33
2017-08-15T03:00:43.756Z,19.33
2017-08-15T03:03:10.929Z,19.33
2017-08-15T03:05:38.097Z,19.33
2017-08-15T03:08:05.574Z,19.33
2017-08-15T03:10:33.140Z,19.33
2017-08-15T03:13:00.313Z,19.34
2017-08-15T03:15:27.752Z,19.32
2017-08-15T03:17:55.027Z,19.34
2017-08-15T03:20:22.484Z,19.34
2017-08-15T03:22:50.004Z,19.34
2017-08-15T03:25:17.177Z,19.33
2017-08-15T03:27:44.350Z,19.32
2017-08-15T03:30:11.883Z,19.32
2017-08-15T03:32:39.157Z,19.32
2017-08-15T03:35:06.791Z,19.33
2017-08-15T03:37:33.966Z,19.32
2017-08-15T03:40:01.133Z,19.32
2017-08-15T03:42:28.686Z,19.32
2017-08-15T03:44:55.889Z,19.32
2017-08-15T03:47:23.406Z,19.32
2017-08-15T03:49:50.745Z,19.32
2017-08-15T03:52:18.266Z,19.32
2017-08-15T03:54:45.433Z,19.32
2017-08-15T03:57:12.804Z,19.31
2017-08-15T03:59:39.992Z,19.32
2017-08-15T04:02:07.611Z,19.32
2017-08-15T04:04:34.800Z,19.32
2017-08-15T04:07:02.098Z,19.32
2017-08-15T04:09:29.792Z,19.31
2017-08-15T04:11:56.960Z,19.31
2017-08-15T04:14:24.599Z,19.32
2017-08-15T04:16:51.843Z,19.32
2017-08-15T04:19:19.013Z,19.32
2017-08-15T04:21:46.186Z,19.35
2017-08-15T04:24:13.371Z,19.37
2017-08-15T04:26:40.757Z,19.42
2017-08-15T04:29:07.941Z,19.39
2017-08-15T04:31:35.448Z,19.38
2017-08-15T04:34:03.201Z,19.43
2017-08-15T04:36:30.591Z,19.47
2017-08-15T04:38:58.041Z,19.53
2017-08-15T04:41:25.214Z,19.59
2017-08-15T04:43:52.836Z,19.64
2017-08-15T04:46:20.421Z,19.70
2017-08-15T04:48:47.869Z,19.71
2017-08-15T04:51:15.330Z,19.59
2017-08-15T04:53:42.515Z,19.52
2017-08-15T04:56:09.933Z,19.47
2017-08-15T04:58:37.399Z,19.43
2017-08-15T05:01:04.848Z,19.42
2017-08-15T05:03:32.037Z,19.40
2017-08-15T05:05:59.206Z,19.40
2017-08-15T05:08:26.374Z,19.40
2017-08-15T05:10:53.757Z,19.39
2017-08-15T05:13:20.926Z,19.39
2017-08-15T05:15:48.101Z,19.38
2017-08-15T05:18:15.828Z,19.38
2017-08-15T05:20:43.278Z,19.38
2017-08-15T05:23:10.450Z,19.37
2017-08-15T05:25:37.892Z,19.36
2017-08-15T05:28:05.083Z,19.36
2017-08-15T05:30:32.447Z,19.37
2017-08-15T05:32:59.630Z,19.37
2017-08-15T05:35:27.101Z,19.36
2017-08-15T05:37:54.557Z,19.36
2017-08-15T05:40:22.346Z,19.36
2017-08-15T05:42:49.532Z,19.36
2017-08-15T05:45:17.243Z,19.36
2017-08-15T05:47:44.493Z,19.37
2017-08-15T05:50:12.034Z,19.38
2017-08-15T05:52:39.306Z,19.40
2017-08-15T05:55:06.824Z,19.40
2017-08-15T05:57:34.213Z,19.41
2017-08-15T06:00:01.677Z,19.42
2017-08-15T06:02:28.864Z,19.41
2017-08-15T06:04:56.393Z,19.40
2017-08-15T06:07:23.936Z,19.41
2017-08-15T06:09:51.191Z,19.40
2017-08-15T06:12:18.846Z,19.40
2017-08-15T06:14:46.421Z,19.40
2017-08-15T06:17:13.593Z,19.40
2017-08-15T06:19:41.024Z,19.41
2017-08-15T06:22:08.476Z,19.40
2017-08-15T06:24:35.649Z,19.40
2017-08-15T06:27:02.831Z,19.40
2017-08-15T06:29:30.000Z,19.40
2017-08-15T06:31:57.174Z,19.41
2017-08-15T06:34:24.345Z,19.41
2017-08-15T06:36:51.596Z,19.42
2017-08-15T06:39:18.788Z,19.42
2017-08-15T06:41:45.979Z,19.43
2017-08-15T06:44:13.498Z,19.42
2017-08-15T06:46:40.670Z,19.42
2017-08-15T06:49:07.857Z,19.42
2017-08-15T06:51:35.029Z,19.41
2017-08-15T06:54:02.212Z,19.42
2017-08-15T06:56:29.397Z,19.43
2017-08-15T06:58:56.652Z,19.48
2017-08-15T07:01:23.822Z,19.56
2017-08-15T07:03:51.008Z,19.60
2017-08-15T07:06:18.484Z,19.70
2017-08-15T07:08:46.052Z,19.71
2017-08-15T07:11:13.325Z,19.70
2017-08-15T07:13:40.960Z,19.74
2017-08-15T07:16:08.551Z,19.74
2017-08-15T07:18:35.736Z,19.80
2017-08-15T07:21:02.923Z,19.79
2017-08-15T07:23:30.507Z,19.82
2017-08-15T07:25:57.760Z,19.83
2017-08-15T07:28:25.216Z,19.82
2017-08-15T07:30:52.680Z,19.83
2017-08-15T07:33:20.209Z,19.82
2017-08-15T07:35:47.401Z,19.82
2017-08-15T07:38:14.573Z,19.85
2017-08-15T07:40:42.203Z,19.85
2017-08-15T07:43:09.658Z,19.81
2017-08-15T07:45:37.167Z,19.71
2017-08-15T07:48:04.434Z,19.70
2017-08-15T07:50:32.031Z,19.72
2017-08-15T07:52:59.472Z,19.65
2017-08-15T07:55:26.662Z,19.61
2017-08-15T07:57:54.090Z,19.68
2017-08-15T08:00:21.544Z,19.71
2017-08-15T08:02:49.066Z,19.77
2017-08-15T08:05:16.254Z,19.79
2017-08-15T08:07:43.438Z,19.73
2017-08-15T08:10:10.631Z,19.65
2017-08-15T08:12:37.908Z,19.60
2017-08-15T08:15:05.369Z,19.55
2017-08-15T08:17:32.748Z,19.53
2017-08-15T08:19:59.918Z,19.51
2017-08-15T08:22:27.125Z,19.49
2017-08-15T08:24:54.573Z,19.50
2017-08-15T08:27:21.745Z,19.49
2017-08-15T08:29:49.260Z,19.48
2017-08-15T08:32:16.433Z,19.47
2017-08-15T08:34:43.606Z,19.47
2017-08-15T08:37:11.136Z,19.46
2017-08-15T08:39:38.403Z,19.46
2017-08-15T08:42:05.922Z,19.46
2017-08-15T08:44:33.439Z,19.45
2017-08-15T08:47:00.636Z,19.45
2017-08-15T08:49:27.824Z,19.44
2017-08-15T08:51:55.019Z,19.44
2017-08-15T08:54:22.686Z,19.45
2017-08-15T08:56:49.988Z,19.44
2017-08-15T08:59:17.645Z,19.44
2017-08-15T09:01:45.218Z,19.44
2017-08-15T09:04:12.856Z,19.44
2017-08-15T09:06:40.125Z,19.44
2017-08-15T09:09:07.317Z,19.44
2017-08-15T09:11:34.738Z,19.43
2017-08-15T09:14:02.189Z,19.43
2017-08-15T09:16:29.648Z,19.43
2017-08-15T09:18:56.860Z,19.43
2017-08-15T09:21:24.257Z,19.42
2017-08-15T09:23:51.426Z,19.42
2017-08-15T09:26:18.629Z,19.42
2017-08-15T09:28:51.454Z,19.42
2017-08-15T09:31:18.681Z,19.41
2017-08-15T09:33:46.462Z,19.42
2017-08-15T09:36:13.676Z,19.42
2017-08-15T09:38:40.850Z,19.41
2017-08-15T09:41:08.060Z,19.41
2017-08-15T09:43:35.563Z,19.41
2017-08-15T09:46:02.822Z,19.40
2017-08-15T09:48:30.276Z,19.40
2017-08-15T09:50:57.865Z,19.41
2017-08-15T09:53:25.041Z,19.41
2017-08-15T09:55:52.227Z,19.41
2017-08-15T09:58:25.007Z,19.41
2017-08-15T10:00:52.203Z,19.41
2017-08-15T10:03:19.628Z,19.41
2017-08-15T10:05:46.975Z,19.40
2017-08-15T10:08:14.240Z,19.40
2017-08-15T10:10:41.757Z,19.40
2017-08-15T10:13:09.022Z,19.40
2017-08-15T10:15:36.194Z,19.40
2017-08-15T10:18:03.450Z,19.40
2017-08-15T10:20:30.620Z,19.39
2017-08-15T10:22:58.117Z,19.40
2017-08-15T10:25:25.637Z,19.39
2017-08-15T10:27:52.820Z,19.40
2017-08-15T10:30:20.322Z,19.40
2017-08-15T10:32:47.893Z,19.38
2017-08-15T10:35:15.080Z,19.38
2017-08-15T10:37:42.257Z,19.38
2017-08-15T10:40:09.957Z,19.38
2017-08-15T10:42:37.611Z,19.37
2017-08-15T10:45:04.800Z,19.38
2017-08-15T10:47:31.969Z,19.38
2017-08-15T10:49:59.166Z,19.37
2017-08-15T10:52:26.679Z,19.38
2017-08-15T10:54:53.869Z,19.38
2017-08-15T10:57:21.231Z,19.38
2017-08-15T10:59:48.683Z,19.42
2017-08-15T11:02:16.202Z,19.48
2017-08-15T11:04:43.373Z,19.56
2017-08-15T11:07:10.546Z,19.61
2017-08-15T11:09:37.728Z,19.67
2017-08-15T11:12:05.049Z,19.68
2017-08-15T11:14:32.690Z,19.68
2017-08-15T11:17:00.279Z,19.59
2017-08-15T11:19:27.524Z,19.54
2017-08-15T11:21:55.066Z,19.50
2017-08-15T11:24:22.244Z,19.48
2017-08-15T11:26:49.418Z,19.45
2017-08-15T11:29:16.596Z,19.45
2017-08-15T11:31:44.408Z,19.44
2017-08-15T11:34:11.931Z,19.43
2017-08-15T11:36:39.314Z,19.42
2017-08-15T11:39:06.501Z,19.42
2017-08-15T11:41:39.494Z,19.42
2017-08-15T11:44:06.918Z,19.42
2017-08-15T11:46:34.575Z,19.42
2017-08-15T11:49:01.831Z,19.41
2017-08-15T11:51:29.286Z,19.42
2017-08-15T11:53:56.922Z,19.42
2017-08-15T11:56:24.510Z,19.41
2017-08-15T11:58:52.109Z,19.41
2017-08-15T12:01:19.732Z,19.41
2017-08-15T12:03:47.367Z,19.41
2017-08-15T12:06:14.953Z,19.40
2017-08-15T12:08:42.413Z,19.40
2017-08-15T12:11:09.745Z,19.41
2017-08-15T12:13:37.324Z,19.41
2017-08-15T12:16:05.005Z,19.40
2017-08-15T12:18:32.546Z,19.40
2017-08-15T12:21:00.312Z,19.40
2017-08-15T12:23:27.766Z,19.40
2017-08-15T12:25:55.401Z,19.40
2017-08-15T12:28:22.990Z,19.40
2017-08-15T12:30:50.586Z,19.39
2017-08-15T12:33:18.079Z,19.40
2017-08-15T12:35:45.672Z,19.40
2017-08-15T12:38:13.314Z,19.39
2017-08-15T12:40:40.889Z,19.39
2017-08-15T12:43:08.450Z,19.38
2017-08-15T12:45:35.917Z,19.40
2017-08-15T12:48:03.461Z,19.39
2017-08-15T12:50:30.718Z,19.39
2017-08-15T12:52:58.175Z,19.39
2017-08-15T12:55:25.687Z,19.39
2017-08-15T12:57:53.205Z,19.39
2017-08-15T13:00:20.550Z,19.39
2017-08-15T13:02:48.190Z,19.38
2017-08-15T13:05:15.769Z,19.38
2017-08-15T13:07:43.226Z,19.39
2017-08-15T13:10:10.794Z,19.39
2017-08-15T13:12:38.336Z,19.38
2017-08-15T13:15:05.907Z,19.38
2017-08-15T13:17:33.571Z,19.38
2017-08-15T13:20:00.821Z,19.39
2017-08-15T13:22:28.457Z,19.38
2017-08-15T13:24:56.040Z,19.38
2017-08-15T13:27:23.691Z,19.38
2017-08-15T13:29:51.265Z,19.39
2017-08-15T13:32:18.722Z,19.39
2017-08-15T13:34:46.370Z,19.39
2017-08-15T13:37:13.942Z,19.38
2017-08-15T13:39:41.455Z,19.38
2017-08-15T13:42:08.973Z,19.38
2017-08-15T13:44:36.489Z,19.38
2017-08-15T13:47:03.958Z,19.38
2017-08-15T13:49:31.535Z,19.38
2017-08-15T13:51:58.995Z,19.38
2017-08-15T13:54:26.510Z,19.38
2017-08-15T13:56:53.952Z,19.37
2017-08-15T13:59:21.221Z,19.38
2017-08-15T14:01:48.822Z,19.38
2017-08-15T14:04:16.106Z,19.37
2017-08-15T14:06:43.403Z,19.37
2017-08-15T14:09:11.192Z,19.37
2017-08-15T14:11:38.957Z,19.37
2017-08-15T14:14:06.722Z,19.40
2017-08-15T14:16:34.369Z,19.46
2017-08-15T14:19:01.943Z,19.42
2017-08-15T14:21:29.454Z,19.37
2017-08-15T14:23:56.922Z,19.35
2017-08-15T14:26:24.364Z,19.37
2017-08-15T14:28:51.535Z,19.38
2017-08-15T14:31:19.228Z,19.44
2017-08-15T14:33:46.681Z,19.52
2017-08-15T14:36:14.136Z,19.59
2017-08-15T14:38:41.324Z,19.62
2017-08-15T14:41:08.776Z,19.65
2017-08-15T14:43:35.999Z,19.69
2017-08-15T14:46:03.203Z,19.74
2017-08-15T14:48:30.385Z,19.67
2017-08-15T14:50:57.573Z,19.58
2017-08-15T14:53:24.773Z,19.53
2017-08-15T14:55:52.759Z,19.49
2017-08-15T14:58:19.946Z,19.48
2017-08-15T15:00:47.178Z,19.46
2017-08-15T15:03:14.385Z,19.45
2017-08-15T15:05:41.975Z,19.44
2017-08-15T15:08:09.246Z,19.44
2017-08-15T15:10:36.449Z,19.43
2017-08-15T15:13:03.845Z,19.43
2017-08-15T15:15:31.491Z,19.43
2017-08-15T15:17:58.694Z,19.43
2017-08-15T15:20:25.881Z,19.42
2017-08-15T15:22:53.852Z,19.42
2017-08-15T15:25:21.128Z,19.42
2017-08-15T15:27:48.332Z,19.41
2017-08-15T15:30:15.746Z,19.42
2017-08-15T15:32:43.203Z,19.41
2017-08-15T15:35:10.833Z,19.41
2017-08-15T15:37:38.422Z,19.41
2017-08-15T15:40:05.631Z,19.41
2017-08-15T15:42:33.262Z,19.41
2017-08-15T15:45:00.785Z,19.41
2017-08-15T15:47:28.244Z,19.41
2017-08-15T15:49:55.703Z,19.41
2017-08-15T15:52:22.958Z,19.40
2017-08-15T15:54:50.126Z,19.40
2017-08-15T15:57:17.289Z,19.41
2017-08-15T15:59:44.782Z,19.41
2017-08-15T16:02:11.976Z,19.40
2017-08-15T16:04:39.156Z,19.40
2017-08-15T16:07:06.317Z,19.40
2017-08-15T16:09:33.490Z,19.41
2017-08-15T16:12:01.589Z,19.41
2017-08-15T16:14:28.754Z,19.40
2017-08-15T16:16:56.282Z,19.40
2017-08-15T16:19:23.853Z,19.41
2017-08-15T16:21:51.109Z,19.40
2017-08-15T16:24:18.684Z,19.40
2017-08-15T16:26:45.868Z,19.41
2017-08-15T16:29:13.271Z,19.41
2017-08-15T16:31:40.630Z,19.40
2017-08-15T16:34:07.802Z,19.40
2017-08-15T16:36:35.347Z,19.40
2017-08-15T16:39:02.815Z,19.40
2017-08-15T16:41:30.001Z,19.40
2017-08-15T16:43:57.202Z,19.39
2017-08-15T16:46:24.460Z,19.39
2017-08-15T16:49:01.746Z,19.39
2017-08-15T16:51:30.124Z,19.40
2017-08-15T16:53:57.344Z,19.39
2017-08-15T16:56:24.559Z,19.40
2017-08-15T16:58:52.187Z,19.39
2017-08-15T17:01:19.368Z,19.40
2017-08-15T17:03:46.866Z,19.40
2017-08-15T17:06:14.207Z,19.39
2017-08-15T17:08:42.503Z,19.39
2017-08-15T17:11:09.745Z,19.39
2017-08-15T17:13:37.697Z,19.39
2017-08-15T17:16:06.838Z,19.39
2017-08-15T17:18:34.598Z,19.38
2017-08-15T17:21:02.489Z,19.39
2017-08-15T17:23:29.681Z,19.38
2017-08-15T17:25:57.366Z,19.38
2017-08-15T17:28:25.169Z,19.38
2017-08-15T17:30:52.561Z,19.38
2017-08-15T17:33:19.729Z,19.47
2017-08-15T17:35:46.916Z,19.47
2017-08-15T17:38:14.267Z,19.47
2017-08-15T17:40:41.460Z,19.48
2017-08-15T17:43:09.100Z,19.53
2017-08-15T17:45:36.273Z,19.57
2017-08-15T17:48:03.491Z,19.65
2017-08-15T17:50:30.657Z,19.68
2017-08-15T17:52:58.707Z,19.69
2017-08-15T17:55:26.158Z,19.72
2017-08-15T17:57:53.612Z,19.75
2017-08-15T18:00:21.273Z,19.77
2017-08-15T18:02:48.845Z,19.72
2017-08-15T18:05:16.281Z,19.63
2017-08-15T18:07:43.748Z,19.58
2017-08-15T18:10:11.266Z,19.55
2017-08-15T18:12:38.467Z,19.51
2017-08-15T18:15:05.653Z,19.50
2017-08-15T18:17:32.970Z,19.50
2017-08-15T18:20:00.134Z,19.49
2017-08-15T18:22:27.297Z,19.48
2017-08-15T18:24:54.825Z,19.47
2017-08-15T18:27:21.988Z,19.47
2017-08-15T18:29:49.168Z,19.47
2017-08-15T18:32:16.489Z,19.46
2017-08-15T18:34:44.119Z,19.47
2017-08-15T18:37:11.393Z,19.45
2017-08-15T18:39:39.056Z,19.46
2017-08-15T18:42:06.310Z,19.46
2017-08-15T18:44:33.481Z,19.45
2017-08-15T18:47:00.916Z,19.45
2017-08-15T18:49:28.577Z,19.45
2017-08-15T18:51:55.828Z,19.44
2017-08-15T18:54:23.336Z,19.44
2017-08-15T18:56:50.505Z,19.44
2017-08-15T18:59:17.675Z,19.45
2017-08-15T19:01:44.914Z,19.43
2017-08-15T19:04:12.104Z,19.44
2017-08-15T19:06:39.273Z,19.44
2017-08-15T19:09:06.692Z,19.44
2017-08-15T19:11:34.266Z,19.44
2017-08-15T19:14:01.718Z,19.42
2017-08-15T19:16:28.890Z,19.43
2017-08-15T19:18:56.513Z,19.43
2017-08-15T19:21:23.785Z,19.43
2017-08-15T19:23:50.969Z,19.43
2017-08-15T19:26:18.493Z,19.43
2017-08-15T19:28:46.058Z,19.43
2017-08-15T19:31:13.234Z,19.43
2017-08-15T19:33:40.453Z,19.43
2017-08-15T19:36:07.633Z,19.42
2017-08-15T19:38:35.080Z,19.43
2017-08-15T19:41:02.267Z,19.42
2017-08-15T19:43:29.666Z,19.43
2017-08-15T19:45:57.124Z,19.42
2017-08-15T19:48:24.512Z,19.43
2017-08-15T19:50:51.727Z,19.42
2017-08-15T19:53:19.188Z,19.42
2017-08-15T19:55:46.368Z,19.42
2017-08-15T19:58:14.109Z,19.42
2017-08-15T20:00:41.613Z,19.42
2017-08-15T20:03:09.130Z,19.42
2017-08-15T20:05:36.294Z,19.42
2017-08-15T20:08:03.462Z,19.42
2017-08-15T20:10:30.633Z,19.43
2017-08-15T20:12:58.130Z,19.42
2017-08-15T20:15:25.380Z,19.42
2017-08-15T20:17:52.841Z,19.42
2017-08-15T20:20:20.404Z,19.42
2017-08-15T20:22:47.945Z,19.42
2017-08-15T20:25:15.523Z,19.42
2017-08-15T20:27:42.972Z,19.42
2017-08-15T20:30:10.156Z,19.42
2017-08-15T20:32:37.329Z,19.42
2017-08-15T20:35:04.505Z,19.42
2017-08-15T20:37:31.688Z,19.42
2017-08-15T20:39:59.032Z,19.42
2017-08-15T20:42:26.489Z,19.42
2017-08-15T20:44:53.654Z,19.41
2017-08-15T20:47:21.172Z,19.42
2017-08-15T20:49:48.665Z,19.41
2017-08-15T20:52:16.207Z,19.41
2017-08-15T20:54:43.466Z,19.41
2017-08-15T20:57:10.655Z,19.41
2017-08-15T20:59:37.833Z,19.42
2017-08-15T21:02:05.404Z,19.41
2017-08-15T21:04:33.169Z,19.41
2017-08-15T21:07:00.334Z,19.41
2017-08-15T21:09:27.524Z,19.41
2017-08-15T21:11:55.053Z,19.40
2017-08-15T21:14:22.225Z,19.41
2017-08-15T21:16:49.413Z,19.43
2017-08-15T21:19:16.592Z,19.48
2017-08-15T21:21:43.960Z,19.52
2017-08-15T21:24:11.142Z,19.57
2017-08-15T21:26:38.568Z,19.60
2017-08-15T21:29:06.221Z,19.65
2017-08-15T21:31:33.480Z,19.68
2017-08-15T21:34:00.937Z,19.65
2017-08-15T21:36:28.397Z,19.58
2017-08-15T21:38:55.565Z,19.53
2017-08-15T21:41:22.772Z,19.50
2017-08-15T21:43:49.941Z,19.48
2017-08-15T21:46:17.119Z,19.47
2017-08-15T21:48:44.663Z,19.46
2017-08-15T21:51:11.901Z,19.46
2017-08-15T21:53:39.422Z,19.46
2017-08-15T21:56:06.625Z,19.45
2017-08-15T21:58:34.032Z,19.45
2017-08-15T22:01:06.690Z,19.45
2017-08-15T22:03:34.220Z,19.44
2017-08-15T22:06:02.061Z,19.44
2017-08-15T22:08:29.339Z,19.43
2017-08-15T22:10:56.846Z,19.44
2017-08-15T22:13:24.021Z,19.44
2017-08-15T22:15:51.200Z,19.43
2017-08-15T22:18:18.388Z,19.43
2017-08-15T22:20:45.702Z,19.43
2017-08-15T22:23:12.879Z,19.43
2017-08-15T22:25:40.053Z,19.43
2017-08-15T22:28:07.669Z,19.43
2017-08-15T22:30:34.986Z,19.43
2017-08-15T22:33:02.179Z,19.43
2017-08-15T22:35:29.697Z,19.43
2017-08-15T22:37:56.879Z,19.42
2017-08-15T22:40:24.282Z,19.42
2017-08-15T22:42:51.461Z,19.42
2017-08-15T22:45:18.629Z,19.42
2017-08-15T22:47:46.198Z,19.42
2017-08-15T22:50:13.649Z,19.42
2017-08-15T22:52:40.828Z,19.42
2017-08-15T22:55:08.001Z,19.42
2017-08-15T22:57:35.508Z,19.42
2017-08-15T23:00:02.688Z,19.42
2017-08-15T23:02:29.856Z,19.42
2017-08-15T23:04:57.036Z,19.42
2017-08-15T23:07:24.245Z,19.42
2017-08-15T23:09:51.428Z,19.41
2017-08-15T23:12:19.406Z,19.41
2017-08-15T23:14:46.588Z,19.42
2017-08-15T23:17:13.757Z,19.41
2017-08-15T23:19:40.987Z,19.42
2017-08-15T23:22:08.507Z,19.42
2017-08-15T23:24:36.000Z,19.41
2017-08-15T23:27:03.165Z,19.42
2017-08-15T23:29:30.504Z,19.42
2017-08-15T23:31:57.678Z,19.42
2017-08-15T23:34:25.122Z,19.42
2017-08-15T23:36:52.762Z,19.41
2017-08-15T23:39:20.340Z,19.42
2017-08-15T23:41:47.846Z,19.42
2017-08-15T23:44:15.018Z,19.42
2017-08-15T23:46:42.195Z,19.43
2017-08-15T23:49:09.365Z,19.42
2017-08-15T23:51:36.701Z,19.42
2017-08-15T23:54:04.160Z,19.42
2017-08-15T23:56:31.334Z,19.42
2017-08-15T23:58:58.757Z,19.42
